createdAt,value
2024-05-09T00:02:03.059Z,13.68
2024-05-09T00:07:46.705Z,13.64
2024-05-09T00:17:03.562Z,13.57
2024-05-09T00:19:42.997Z,13.53
2024-05-09T00:22:14.145Z,13.52
2024-05-09T00:24:52.114Z,13.50
2024-05-09T00:28:03.501Z,13.47
2024-05-09T00:31:04.043Z,13.46
2024-05-09T00:37:02.860Z,13.45
2024-05-09T00:39:45.157Z,13.44
2024-05-09T00:42:21.921Z,13.42
2024-05-09T00:55:29.905Z,13.41
2024-05-09T01:02:37.106Z,13.38
2024-05-09T01:16:41.356Z,13.31
2024-05-09T01:19:48.762Z,13.31
2024-05-09T01:22:25.388Z,13.29
2024-05-09T01:25:32.367Z,13.27
2024-05-09T01:28:11.690Z,13.22
2024-05-09T01:30:48.577Z,13.11
2024-05-09T01:33:19.389Z,13.01
2024-05-09T01:36:26.594Z,12.99
2024-05-09T01:42:41.799Z,12.91
2024-05-09T01:45:36.080Z,12.93
2024-05-09T01:48:10.772Z,12.94
2024-05-09T01:50:44.148Z,12.95
2024-05-09T01:53:16.831Z,12.79
2024-05-09T01:56:22.002Z,12.76
2024-05-09T01:59:30.979Z,12.85
2024-05-09T02:02:04.579Z,12.90
2024-05-09T02:04:38.039Z,12.85
2024-05-09T02:07:09.517Z,12.89
2024-05-09T02:09:42.930Z,12.92
2024-05-09T02:12:19.478Z,12.91
2024-05-09T02:14:57.607Z,12.93
2024-05-09T02:17:31.232Z,12.92
2024-05-09T02:20:03.674Z,12.89
2024-05-09T02:22:36.377Z,12.78
2024-05-09T02:25:06.759Z,12.80
2024-05-09T02:27:40.156Z,12.85
2024-05-09T02:30:31.128Z,12.90
2024-05-09T02:33:14.493Z,12.92
2024-05-09T02:41:36.142Z,12.94
2024-05-09T02:44:21.794Z,12.89
2024-05-09T02:47:15.518Z,12.89
2024-05-09T02:53:07.967Z,12.95
2024-05-09T02:56:05.892Z,12.95
2024-05-09T02:58:39.032Z,12.96
2024-05-09T03:01:06.536Z,12.97
2024-05-09T03:03:45.375Z,12.98
2024-05-09T03:06:13.390Z,13.00
2024-05-09T03:09:24.651Z,13.00
2024-05-09T03:12:16.871Z,13.00
2024-05-09T03:14:47.016Z,13.00
2024-05-09T03:17:15.155Z,13.00
2024-05-09T03:20:00.822Z,13.00
2024-05-09T03:22:37.511Z,13.01
2024-05-09T03:25:10.859Z,13.01
2024-05-09T03:27:40.355Z,13.01
2024-05-09T03:30:26.178Z,13.02
2024-05-09T03:33:03.231Z,13.00
2024-05-09T03:35:36.485Z,12.98
2024-05-09T03:38:06.766Z,12.98
2024-05-09T03:40:37.017Z,12.98
2024-05-09T03:43:11.695Z,12.98
2024-05-09T03:46:12.529Z,12.96
2024-05-09T03:48:53.036Z,12.94
2024-05-09T03:51:23.650Z,12.93
2024-05-09T03:54:25.458Z,12.92
2024-05-09T03:56:54.691Z,12.89
2024-05-09T03:59:28.371Z,12.88
2024-05-09T04:02:01.604Z,12.87
2024-05-09T04:04:35.111Z,12.84
2024-05-09T04:07:08.778Z,12.81
2024-05-09T04:09:39.588Z,12.82
2024-05-09T04:12:20.900Z,12.82
2024-05-09T04:14:54.372Z,12.80
2024-05-09T04:17:26.292Z,12.79
2024-05-09T04:19:59.658Z,12.79
2024-05-09T04:23:11.167Z,12.77
2024-05-09T04:25:36.671Z,12.78
2024-05-09T04:28:08.696Z,12.79
2024-05-09T04:30:39.637Z,12.79
2024-05-09T04:33:31.902Z,12.81
2024-05-09T04:39:56.979Z,12.79
2024-05-09T04:42:43.605Z,12.80
2024-05-09T04:45:54.150Z,12.80
2024-05-09T04:48:28.356Z,12.81
2024-05-09T04:50:59.151Z,12.81
2024-05-09T04:53:35.723Z,12.82
2024-05-09T04:56:10.232Z,12.83
2024-05-09T04:58:44.320Z,12.87
2024-05-09T05:01:12.501Z,12.89
2024-05-09T05:03:46.321Z,12.93
2024-05-09T05:06:14.153Z,12.93
2024-05-09T05:08:49.728Z,12.96
2024-05-09T05:12:24.183Z,12.97
2024-05-09T05:14:52.341Z,12.99
2024-05-09T05:17:22.876Z,13.01
2024-05-09T05:19:57.172Z,13.04
2024-05-09T05:22:27.704Z,13.06
2024-05-09T05:25:20.972Z,13.10
2024-05-09T05:34:28.399Z,13.22
2024-05-09T05:40:03.338Z,13.30
2024-05-09T05:49:09.167Z,13.41
2024-05-09T05:51:49.307Z,13.46
2024-05-09T05:54:25.567Z,13.51
2024-05-09T05:56:59.065Z,13.54
2024-05-09T05:59:30.078Z,13.60
2024-05-09T06:02:04.085Z,13.64
2024-05-09T06:10:38.088Z,13.81
2024-05-09T06:13:16.581Z,13.85
2024-05-09T06:19:10.730Z,13.90
2024-05-09T06:28:19.979Z,14.08
2024-05-09T06:30:55.211Z,14.16
2024-05-09T06:33:32.402Z,14.22
2024-05-09T06:36:33.223Z,14.28
2024-05-09T06:39:07.643Z,14.35
2024-05-09T06:44:43.742Z,14.46
2024-05-09T06:47:17.013Z,14.51
2024-05-09T06:49:46.779Z,14.57
2024-05-09T06:52:18.047Z,14.59
2024-05-09T06:54:48.168Z,14.64
2024-05-09T06:57:27.536Z,14.69
2024-05-09T06:59:59.732Z,14.76
2024-05-09T07:02:29.698Z,14.80
2024-05-09T07:04:59.528Z,14.84
2024-05-09T07:07:29.393Z,14.90
2024-05-09T07:09:58.923Z,14.98
2024-05-09T07:12:26.383Z,15.03
2024-05-09T07:14:56.017Z,15.10
2024-05-09T07:17:27.977Z,15.16
2024-05-09T07:20:05.536Z,15.23
2024-05-09T07:22:36.507Z,15.31
2024-05-09T07:25:10.769Z,15.37
2024-05-09T07:30:34.526Z,15.52
2024-05-09T07:33:03.028Z,15.62
2024-05-09T07:36:02.313Z,15.70
2024-05-09T07:38:32.045Z,15.79
2024-05-09T07:41:06.235Z,15.85
2024-05-09T07:43:35.094Z,15.94
2024-05-09T07:47:14.098Z,16.05
2024-05-09T07:50:35.835Z,16.17
2024-05-09T07:53:22.175Z,16.32
2024-05-09T07:54:55.139Z,16.44
2024-05-09T07:57:25.040Z,16.55
2024-05-09T07:59:52.112Z,16.65
2024-05-09T08:02:22.251Z,16.73
2024-05-09T08:04:49.790Z,16.85
2024-05-09T08:10:36.428Z,17.07
2024-05-09T08:13:15.201Z,17.20
2024-05-09T08:18:36.917Z,17.43
2024-05-09T08:21:13.050Z,17.55
2024-05-09T08:23:54.026Z,17.65
2024-05-09T08:27:09.033Z,17.73
2024-05-09T08:32:51.342Z,17.91
2024-05-09T08:35:22.056Z,18.04
2024-05-09T08:37:53.591Z,18.13
2024-05-09T08:40:33.969Z,18.22
2024-05-09T08:43:27.395Z,18.33
2024-05-09T08:46:01.819Z,18.42
2024-05-09T08:48:44.899Z,18.50
2024-05-09T08:51:18.233Z,18.55
2024-05-09T08:53:49.054Z,18.63
2024-05-09T08:56:40.592Z,18.72
2024-05-09T08:59:14.945Z,18.82
2024-05-09T09:01:59.954Z,18.90
2024-05-09T09:04:37.313Z,18.97
2024-05-09T09:07:09.178Z,18.99
2024-05-09T09:09:43.556Z,18.99
2024-05-09T09:12:15.127Z,19.06
2024-05-09T09:15:13.807Z,19.16
2024-05-09T09:18:19.870Z,19.12
2024-05-09T09:24:45.372Z,19.17
2024-05-09T09:31:07.821Z,19.42
2024-05-09T09:33:42.571Z,19.44
2024-05-09T09:36:24.304Z,19.54
2024-05-09T09:39:26.907Z,19.68
2024-05-09T09:42:18.951Z,19.75
2024-05-09T09:44:54.621Z,19.61
2024-05-09T09:48:11.572Z,19.41
2024-05-09T09:50:52.381Z,19.23
2024-05-09T09:56:09.108Z,19.13
2024-05-09T09:56:30.683Z,19.18
2024-05-09T09:59:05.855Z,19.13
2024-05-09T10:01:34.824Z,19.14
2024-05-09T10:04:08.625Z,19.31
2024-05-09T10:06:41.294Z,19.36
2024-05-09T10:09:17.886Z,19.36
2024-05-09T10:12:07.428Z,19.21
2024-05-09T10:15:04.994Z,19.02
2024-05-09T10:17:36.144Z,18.88
2024-05-09T10:20:30.897Z,18.91
2024-05-09T10:23:07.057Z,19.07
2024-05-09T10:25:37.401Z,19.16
2024-05-09T10:28:05.234Z,19.22
2024-05-09T10:31:20.481Z,19.35
2024-05-09T10:36:51.775Z,19.70
2024-05-09T10:39:29.317Z,19.77
2024-05-09T10:42:42.852Z,20.03
2024-05-09T10:45:52.316Z,20.27
2024-05-09T10:48:39.159Z,20.50
2024-05-09T10:51:51.027Z,20.73
2024-05-09T10:54:53.725Z,20.64
2024-05-09T10:57:28.227Z,20.46
2024-05-09T11:00:18.990Z,20.24
2024-05-09T11:02:58.524Z,20.10
2024-05-09T11:05:29.404Z,20.31
2024-05-09T11:08:13.880Z,20.60
2024-05-09T11:11:14.795Z,20.92
2024-05-09T11:17:46.851Z,21.57
2024-05-09T11:28:29.235Z,21.89
2024-05-09T11:36:05.576Z,22.27
2024-05-09T11:37:37.218Z,22.28
2024-05-09T11:43:46.763Z,22.09
2024-05-09T11:46:55.103Z,22.03
2024-05-09T11:50:07.897Z,21.90
2024-05-09T11:53:10.548Z,21.78
2024-05-09T11:56:01.540Z,21.60
2024-05-09T11:58:40.027Z,21.40
2024-05-09T12:01:43.041Z,21.23
2024-05-09T12:04:41.950Z,21.12
2024-05-09T12:07:43.851Z,21.04
2024-05-09T12:10:35.691Z,20.90
2024-05-09T12:16:58.845Z,20.65
2024-05-09T12:23:19.654Z,20.51
2024-05-09T12:26:11.342Z,20.40
2024-05-09T12:32:29.125Z,20.17
2024-05-09T12:35:02.056Z,20.14
2024-05-09T12:38:19.818Z,20.14
2024-05-09T12:41:10.557Z,20.13
2024-05-09T12:43:50.062Z,20.13
2024-05-09T12:46:48.916Z,20.16
2024-05-09T12:49:21.612Z,20.18
2024-05-09T12:52:00.118Z,20.20
2024-05-09T12:55:13.207Z,20.21
2024-05-09T12:58:20.135Z,20.15
2024-05-09T13:00:47.855Z,20.11
2024-05-09T13:03:38.787Z,20.13
2024-05-09T13:06:13.397Z,20.14
2024-05-09T13:08:57.497Z,20.18
2024-05-09T13:11:35.024Z,20.25
2024-05-09T13:14:22.831Z,20.35
2024-05-09T13:16:58.444Z,20.45
2024-05-09T13:19:36.675Z,20.53
2024-05-09T13:22:31.588Z,20.56
2024-05-09T13:25:17.031Z,20.64
2024-05-09T13:27:57.300Z,20.64
2024-05-09T13:30:54.018Z,20.73
2024-05-09T13:33:51.795Z,20.84
2024-05-09T13:36:46.263Z,20.89
2024-05-09T13:39:41.062Z,20.95
2024-05-09T13:42:16.500Z,21.00
2024-05-09T13:44:56.337Z,21.00
2024-05-09T13:47:50.380Z,21.00
2024-05-09T13:50:31.492Z,20.99
2024-05-09T13:53:20.029Z,20.99
2024-05-09T13:56:05.979Z,20.98
2024-05-09T13:58:38.846Z,20.95
2024-05-09T14:01:08.432Z,20.93
2024-05-09T14:03:54.177Z,20.93
2024-05-09T14:06:36.307Z,20.89
2024-05-09T14:12:11.371Z,20.77
2024-05-09T14:15:22.039Z,20.71
2024-05-09T14:18:14.132Z,20.68
2024-05-09T14:21:45.386Z,20.64
2024-05-09T14:24:25.562Z,20.60
2024-05-09T14:26:57.467Z,20.57
2024-05-09T14:29:44.460Z,20.55
2024-05-09T14:32:39.013Z,20.50
2024-05-09T14:35:24.617Z,20.47
2024-05-09T14:37:58.934Z,20.47
2024-05-09T14:40:41.630Z,20.47
2024-05-09T14:43:55.489Z,20.47
2024-05-09T14:46:59.223Z,20.44
2024-05-09T14:49:59.372Z,20.45
2024-05-09T14:52:41.270Z,20.42
2024-05-09T14:55:27.165Z,20.40
2024-05-09T15:02:01.184Z,20.39
2024-05-09T15:05:38.384Z,20.38
2024-05-09T15:12:21.589Z,20.33
2024-05-09T15:18:50.422Z,20.35
2024-05-09T15:21:39.138Z,20.36
2024-05-09T15:25:00.888Z,20.34
2024-05-09T15:31:43.518Z,20.30
2024-05-09T15:37:35.627Z,20.22
2024-05-09T15:40:40.611Z,20.22
2024-05-09T15:47:24.607Z,20.25
2024-05-09T15:50:20.630Z,20.24
2024-05-09T15:53:17.268Z,20.26
2024-05-09T15:55:58.227Z,20.24
2024-05-09T15:58:51.975Z,20.23
2024-05-09T16:01:52.115Z,20.21
2024-05-09T16:05:10.941Z,20.22
2024-05-09T16:11:09.995Z,20.17
2024-05-09T16:14:34.406Z,20.18
2024-05-09T16:17:46.552Z,20.17
2024-05-09T16:20:38.758Z,20.14
2024-05-09T16:23:20.311Z,20.12
2024-05-09T16:26:26.396Z,20.12
2024-05-09T16:29:23.240Z,20.12
2024-05-09T16:31:58.123Z,20.12
2024-05-09T16:37:58.563Z,20.17
2024-05-09T16:40:54.678Z,20.20
2024-05-09T16:50:26.341Z,20.19
2024-05-09T16:56:36.168Z,20.25
2024-05-09T17:03:16.638Z,20.31
2024-05-09T17:09:50.015Z,20.34
2024-05-09T17:12:32.123Z,20.35
2024-05-09T17:15:21.141Z,20.36
2024-05-09T17:18:03.526Z,20.34
2024-05-09T17:20:54.478Z,20.32
2024-05-09T17:27:46.093Z,20.27
2024-05-09T17:30:36.171Z,20.24
2024-05-09T17:33:26.816Z,20.23
2024-05-09T17:36:03.642Z,20.19
2024-05-09T17:38:35.681Z,20.16
2024-05-09T17:41:05.627Z,20.14
2024-05-09T17:43:52.829Z,20.11
2024-05-09T17:46:35.713Z,20.07
2024-05-09T17:49:22.914Z,20.03
2024-05-09T17:52:38.073Z,19.99
2024-05-09T17:55:21.151Z,19.93
2024-05-09T17:58:19.366Z,19.90
2024-05-09T18:01:04.993Z,19.85
2024-05-09T18:03:42.175Z,19.81
2024-05-09T18:06:15.969Z,19.79
2024-05-09T18:09:44.936Z,19.75
2024-05-09T18:12:44.876Z,19.69
2024-05-09T18:15:38.561Z,19.65
2024-05-09T18:18:42.825Z,19.59
2024-05-09T18:21:15.751Z,19.54
2024-05-09T18:23:42.844Z,19.48
2024-05-09T18:26:19.022Z,19.44
2024-05-09T18:28:47.468Z,19.39
2024-05-09T18:31:51.767Z,19.47
2024-05-09T18:34:46.316Z,19.35
2024-05-09T18:41:26.292Z,19.23
2024-05-09T18:44:14.643Z,19.17
2024-05-09T18:47:20.977Z,19.12
2024-05-09T18:50:17.694Z,19.08
2024-05-09T18:53:17.431Z,19.02
2024-05-09T18:55:54.961Z,18.95
2024-05-09T18:58:43.975Z,18.92
2024-05-09T19:01:51.705Z,18.88
2024-05-09T19:04:51.952Z,18.82
2024-05-09T19:08:01.389Z,18.79
2024-05-09T19:17:16.824Z,18.70
2024-05-09T19:19:52.500Z,18.67
2024-05-09T19:22:20.064Z,18.66
2024-05-09T19:24:49.970Z,18.64
2024-05-09T19:27:19.738Z,18.61
2024-05-09T19:29:54.018Z,18.57
2024-05-09T19:32:32.095Z,18.54
2024-05-09T19:35:02.493Z,18.49
2024-05-09T19:37:32.020Z,18.46
2024-05-09T19:40:08.542Z,18.41
2024-05-09T19:42:43.101Z,18.40
2024-05-09T19:45:16.362Z,18.39
2024-05-09T19:47:43.707Z,18.38
2024-05-09T19:50:19.554Z,18.36
2024-05-09T19:52:50.477Z,18.33
2024-05-09T19:55:20.270Z,18.28
2024-05-09T19:57:48.203Z,18.24
2024-05-09T20:00:26.238Z,18.24
2024-05-09T20:03:03.115Z,18.21
2024-05-09T20:05:33.689Z,18.19
2024-05-09T20:08:01.175Z,18.15
2024-05-09T20:10:33.452Z,18.14
2024-05-09T20:13:03.301Z,18.14
2024-05-09T20:15:37.968Z,18.13
2024-05-09T20:18:06.716Z,18.14
2024-05-09T20:20:41.614Z,18.13
2024-05-09T20:23:11.539Z,18.12
2024-05-09T20:25:44.402Z,18.06
2024-05-09T20:28:11.732Z,18.02
2024-05-09T20:30:44.602Z,18.00
2024-05-09T20:33:15.155Z,17.99
2024-05-09T20:35:45.264Z,17.96
2024-05-09T20:38:14.616Z,17.97
2024-05-09T20:40:44.272Z,18.00
2024-05-09T20:43:11.993Z,18.02
2024-05-09T20:45:44.714Z,18.01
2024-05-09T20:48:12.216Z,18.00
2024-05-09T20:50:45.657Z,17.99
2024-05-09T20:53:14.303Z,17.99
2024-05-09T20:55:45.685Z,17.96
2024-05-09T20:58:15.311Z,17.96
2024-05-09T21:00:51.821Z,17.95
2024-05-09T21:03:19.747Z,17.92
2024-05-09T21:05:52.160Z,17.88
2024-05-09T21:08:23.775Z,17.85
2024-05-09T21:10:56.964Z,17.81
2024-05-09T21:13:26.200Z,17.71
2024-05-09T21:16:01.842Z,17.67
2024-05-09T21:18:29.372Z,17.64
2024-05-09T21:20:59.283Z,17.64
2024-05-09T21:23:29.113Z,17.63
2024-05-09T21:25:59.825Z,17.62
2024-05-09T21:28:27.151Z,17.60
2024-05-09T21:30:59.962Z,17.60
2024-05-09T21:33:29.582Z,17.57
2024-05-09T21:35:59.607Z,17.53
2024-05-09T21:38:29.692Z,17.56
2024-05-09T21:40:59.636Z,17.49
2024-05-09T21:43:28.696Z,17.44
2024-05-09T21:46:01.162Z,17.38
2024-05-09T21:48:29.114Z,17.35
2024-05-09T21:50:58.962Z,17.33
2024-05-09T21:53:29.546Z,17.30
2024-05-09T21:56:01.413Z,17.21
2024-05-09T21:58:29.292Z,17.09
2024-05-09T22:01:03.785Z,17.05
2024-05-09T22:03:31.316Z,16.97
2024-05-09T22:06:07.210Z,16.93
2024-05-09T22:08:37.078Z,16.85
2024-05-09T22:11:07.377Z,16.81
2024-05-09T22:13:38.518Z,16.80
2024-05-09T22:16:12.071Z,16.70
2024-05-09T22:18:44.938Z,16.64
2024-05-09T22:21:14.935Z,16.66
2024-05-09T22:23:45.108Z,16.67
2024-05-09T22:26:18.167Z,16.70
2024-05-09T22:28:48.508Z,16.70
2024-05-09T22:31:23.693Z,16.67
2024-05-09T22:33:54.649Z,16.66
2024-05-09T22:36:26.344Z,16.63
2024-05-09T22:38:59.926Z,16.63
2024-05-09T22:41:32.967Z,16.60
2024-05-09T22:44:05.866Z,16.56
2024-05-09T22:46:38.425Z,16.52
2024-05-09T22:49:07.043Z,16.49
2024-05-09T22:51:37.246Z,16.45
2024-05-09T22:54:05.060Z,16.42
2024-05-09T22:56:35.060Z,16.41
2024-05-09T22:59:03.007Z,16.38
2024-05-09T23:01:33.322Z,16.32
2024-05-09T23:04:03.609Z,16.27
2024-05-09T23:06:34.519Z,16.26
2024-05-09T23:09:01.975Z,16.26
2024-05-09T23:11:32.088Z,16.23
2024-05-09T23:13:59.420Z,16.22
2024-05-09T23:16:29.144Z,16.19
2024-05-09T23:18:56.457Z,16.13
2024-05-09T23:21:29.158Z,15.94
2024-05-09T23:23:56.392Z,15.77
2024-05-09T23:26:26.630Z,15.68
2024-05-09T23:28:56.541Z,15.73
2024-05-09T23:31:26.447Z,15.77
2024-05-09T23:33:55.284Z,15.81
2024-05-09T23:36:31.048Z,15.87
2024-05-09T23:38:58.821Z,15.90
2024-05-09T23:41:29.545Z,15.94
2024-05-09T23:43:58.544Z,15.95
2024-05-09T23:46:29.083Z,15.97
2024-05-09T23:48:57.170Z,16.02
2024-05-09T23:51:30.646Z,15.99
2024-05-09T23:53:58.201Z,15.97
2024-05-09T23:56:28.737Z,15.95
2024-05-09T23:58:56.399Z,15.92
